createdAt,value
2023-02-11T00:01:06.733Z,10.76
2023-02-11T00:03:33.674Z,10.76
2023-02-11T00:06:01.518Z,10.77
2023-02-11T00:08:28.718Z,10.78
2023-02-11T00:10:56.419Z,10.78
2023-02-11T00:13:24.008Z,10.77
2023-02-11T00:15:51.539Z,10.75
2023-02-11T00:18:18.521Z,10.79
2023-02-11T00:20:45.512Z,10.81
2023-02-11T00:23:12.571Z,10.81
2023-02-11T00:25:41.196Z,10.80
2023-02-11T00:28:08.354Z,10.81
2023-02-11T00:30:35.774Z,10.81
2023-02-11T00:33:03.197Z,10.80
2023-02-11T00:35:30.125Z,10.81
2023-02-11T00:37:57.172Z,10.81
2023-02-11T00:40:24.203Z,10.81
2023-02-11T00:42:51.082Z,10.81
2023-02-11T00:45:18.054Z,10.81
2023-02-11T00:47:44.894Z,10.80
2023-02-11T00:50:11.740Z,10.80
2023-02-11T00:52:38.860Z,10.78
2023-02-11T00:55:06.377Z,10.78
2023-02-11T00:57:33.233Z,10.76
2023-02-11T01:00:00.212Z,10.76
2023-02-11T01:02:27.112Z,10.77
2023-02-11T01:04:54.081Z,10.78
2023-02-11T01:07:20.917Z,10.79
2023-02-11T01:09:47.762Z,10.78
2023-02-11T01:12:14.693Z,10.76
2023-02-11T01:14:42.289Z,10.76
2023-02-11T01:17:09.245Z,10.77
2023-02-11T01:19:37.402Z,10.76
2023-02-11T01:22:04.620Z,10.73
2023-02-11T01:24:31.901Z,10.75
2023-02-11T01:26:58.832Z,10.72
2023-02-11T01:29:25.751Z,10.71
2023-02-11T01:31:52.815Z,10.72
2023-02-11T01:34:19.740Z,10.75
2023-02-11T01:36:46.626Z,10.75
2023-02-11T01:39:13.538Z,10.73
2023-02-11T01:41:40.397Z,10.72
2023-02-11T01:44:10.254Z,10.72
2023-02-11T01:46:38.476Z,10.71
2023-02-11T01:49:09.913Z,10.72
2023-02-11T01:51:40.352Z,10.72
2023-02-11T01:54:12.856Z,10.72
2023-02-11T01:56:45.557Z,10.71
2023-02-11T01:59:15.486Z,10.71
2023-02-11T02:01:45.778Z,10.71
2023-02-11T02:04:15.303Z,10.70
2023-02-11T02:06:45.201Z,10.70
2023-02-11T02:09:16.131Z,10.71
2023-02-11T02:11:43.047Z,10.71
2023-02-11T02:14:09.909Z,10.72
2023-02-11T02:16:37.433Z,10.72
2023-02-11T02:19:07.588Z,10.71
2023-02-11T02:21:37.506Z,10.71
2023-02-11T02:24:05.648Z,10.72
2023-02-11T02:26:35.492Z,10.69
2023-02-11T02:29:05.358Z,10.69
2023-02-11T02:31:43.411Z,10.68
2023-02-11T02:34:16.109Z,10.67
2023-02-11T02:36:45.993Z,10.66
2023-02-11T02:39:17.012Z,10.63
2023-02-11T02:41:44.604Z,10.62
2023-02-11T02:44:11.989Z,10.60
2023-02-11T02:46:38.828Z,10.60
2023-02-11T02:49:07.247Z,10.58
2023-02-11T02:51:37.196Z,10.56
2023-02-11T02:54:05.439Z,10.54
2023-02-11T02:56:38.342Z,10.51
2023-02-11T02:59:18.134Z,10.48
2023-02-11T03:01:51.936Z,10.43
2023-02-11T03:04:21.876Z,10.40
2023-02-11T03:06:53.224Z,10.38
2023-02-11T03:09:23.173Z,10.37
2023-02-11T03:11:50.304Z,10.37
2023-02-11T03:14:18.804Z,10.36
2023-02-11T03:16:46.512Z,10.34
2023-02-11T03:19:15.837Z,10.34
2023-02-11T03:21:44.016Z,10.33
2023-02-11T03:24:17.680Z,10.29
2023-02-11T03:26:50.249Z,10.25
2023-02-11T03:29:20.135Z,10.24
2023-02-11T03:31:50.079Z,10.24
2023-02-11T03:34:22.086Z,10.25
2023-02-11T03:36:51.884Z,10.24
2023-02-11T03:39:24.280Z,10.25
2023-02-11T03:41:53.143Z,10.25
2023-02-11T03:44:21.423Z,10.25
2023-02-11T03:46:50.478Z,10.28
2023-02-11T03:49:20.436Z,10.27
2023-02-11T03:51:48.789Z,10.28
2023-02-11T03:54:19.080Z,10.29
2023-02-11T03:56:50.363Z,10.30
2023-02-11T03:59:17.248Z,10.31
2023-02-11T04:01:44.246Z,10.31
2023-02-11T04:04:11.138Z,10.32
2023-02-11T04:06:38.053Z,10.33
2023-02-11T04:09:04.919Z,10.34
2023-02-11T04:11:31.785Z,10.33
2023-02-11T04:13:58.694Z,10.31
2023-02-11T04:16:25.594Z,10.31
2023-02-11T04:18:52.574Z,10.29
2023-02-11T04:21:19.446Z,10.29
2023-02-11T04:23:46.262Z,10.28
2023-02-11T04:26:13.096Z,10.28
2023-02-11T04:28:39.962Z,10.29
2023-02-11T04:31:06.970Z,10.32
2023-02-11T04:33:33.872Z,10.35
2023-02-11T04:36:00.740Z,10.35
2023-02-11T04:38:27.660Z,10.36
2023-02-11T04:40:54.520Z,10.37
2023-02-11T04:43:21.447Z,10.36
2023-02-11T04:45:48.812Z,10.37
2023-02-11T04:48:15.843Z,10.38
2023-02-11T04:50:42.688Z,10.40
2023-02-11T04:53:09.560Z,10.42
2023-02-11T04:55:36.400Z,10.43
2023-02-11T04:58:03.297Z,10.43
2023-02-11T05:00:30.123Z,10.45
2023-02-11T05:02:56.989Z,10.45
2023-02-11T05:05:23.781Z,10.45
2023-02-11T05:07:50.599Z,10.46
2023-02-11T05:10:17.399Z,10.46
2023-02-11T05:12:44.245Z,10.47
2023-02-11T05:15:11.109Z,10.48
2023-02-11T05:17:37.905Z,10.48
2023-02-11T05:20:05.024Z,10.48
2023-02-11T05:22:32.054Z,10.48
2023-02-11T05:24:58.885Z,10.48
2023-02-11T05:27:25.784Z,10.51
2023-02-11T05:29:53.151Z,10.52
2023-02-11T05:32:19.972Z,10.54
2023-02-11T05:34:47.000Z,10.55
2023-02-11T05:37:14.171Z,10.55
2023-02-11T05:39:41.210Z,10.55
2023-02-11T05:42:08.222Z,10.56
2023-02-11T05:44:35.078Z,10.56
2023-02-11T05:47:01.970Z,10.57
2023-02-11T05:49:28.793Z,10.57
2023-02-11T05:51:55.620Z,10.58
2023-02-11T05:54:22.501Z,10.57
2023-02-11T05:56:49.333Z,10.57
2023-02-11T05:59:16.334Z,10.58
2023-02-11T06:01:43.313Z,10.58
2023-02-11T06:04:10.140Z,10.57
2023-02-11T06:06:37.044Z,10.57
2023-02-11T06:09:04.099Z,10.57
2023-02-11T06:11:30.958Z,10.56
2023-02-11T06:13:57.841Z,10.57
2023-02-11T06:16:24.854Z,10.55
2023-02-11T06:18:51.702Z,10.58
2023-02-11T06:21:18.555Z,10.59
2023-02-11T06:23:45.473Z,10.58
2023-02-11T06:26:17.095Z,10.61
2023-02-11T06:28:44.076Z,10.60
2023-02-11T06:31:12.252Z,10.61
2023-02-11T06:33:39.182Z,10.63
2023-02-11T06:36:12.447Z,10.61
2023-02-11T06:38:39.317Z,10.63
2023-02-11T06:41:06.131Z,10.65
2023-02-11T06:43:32.999Z,10.67
2023-02-11T06:46:00.075Z,10.67
2023-02-11T06:48:26.954Z,10.66
2023-02-11T06:50:53.829Z,10.66
2023-02-11T06:53:20.659Z,10.63
2023-02-11T06:55:47.587Z,10.64
2023-02-11T06:58:15.671Z,10.66
2023-02-11T07:00:42.520Z,10.67
2023-02-11T07:03:09.467Z,10.68
2023-02-11T07:05:38.469Z,10.69
2023-02-11T07:08:05.396Z,10.68
2023-02-11T07:10:32.238Z,10.68
2023-02-11T07:12:59.133Z,10.67
2023-02-11T07:15:26.116Z,10.65
2023-02-11T07:17:52.991Z,10.66
2023-02-11T07:20:19.834Z,10.66
2023-02-11T07:22:46.824Z,10.66
2023-02-11T07:25:13.669Z,10.64
2023-02-11T07:27:40.562Z,10.63
2023-02-11T07:30:07.822Z,10.64
2023-02-11T07:32:34.694Z,10.65
2023-02-11T07:35:01.644Z,10.66
2023-02-11T07:37:34.183Z,10.68
2023-02-11T07:40:01.068Z,10.69
2023-02-11T07:42:28.030Z,10.70
2023-02-11T07:44:54.853Z,10.70
2023-02-11T07:47:21.847Z,10.67
2023-02-11T07:49:48.847Z,10.66
2023-02-11T07:52:15.693Z,10.69
2023-02-11T07:54:42.578Z,10.72
2023-02-11T07:57:09.545Z,10.71
2023-02-11T07:59:36.512Z,10.69
2023-02-11T08:02:03.621Z,10.70
2023-02-11T08:04:30.536Z,10.72
2023-02-11T08:06:59.081Z,10.76
2023-02-11T08:09:26.128Z,10.77
2023-02-11T08:11:54.072Z,10.77
2023-02-11T08:14:21.269Z,10.78
2023-02-11T08:16:48.432Z,10.78
2023-02-11T08:19:16.687Z,10.79
2023-02-11T08:21:44.185Z,10.82
2023-02-11T08:24:11.371Z,10.78
2023-02-11T08:26:38.338Z,10.76
2023-02-11T08:29:08.636Z,10.76
2023-02-11T08:31:37.451Z,10.77
2023-02-11T08:34:04.800Z,10.76
2023-02-11T08:36:33.196Z,10.76
2023-02-11T08:39:17.547Z,10.81
2023-02-11T08:41:46.026Z,10.82
2023-02-11T08:44:13.450Z,10.86
2023-02-11T08:46:40.506Z,10.90
2023-02-11T08:49:07.368Z,10.91
2023-02-11T08:51:34.401Z,10.93
2023-02-11T08:54:01.314Z,10.95
2023-02-11T08:56:28.766Z,10.98
2023-02-11T08:58:55.800Z,10.99
2023-02-11T09:01:24.413Z,11.02
2023-02-11T09:03:51.637Z,11.03
2023-02-11T09:06:18.946Z,11.06
2023-02-11T09:08:47.314Z,11.08
2023-02-11T09:11:14.596Z,11.09
2023-02-11T09:13:42.679Z,11.11
2023-02-11T09:16:16.200Z,11.13
2023-02-11T09:18:44.784Z,11.16
2023-02-11T09:21:11.671Z,11.20
2023-02-11T09:23:38.750Z,11.21
2023-02-11T09:26:08.881Z,11.24
2023-02-11T09:28:36.336Z,11.25
2023-02-11T09:31:06.622Z,11.27
2023-02-11T09:33:33.791Z,11.29
2023-02-11T09:36:01.730Z,11.30
2023-02-11T09:38:28.786Z,11.28
2023-02-11T09:40:55.723Z,11.31
2023-02-11T09:43:24.576Z,11.35
2023-02-11T09:45:54.327Z,11.38
2023-02-11T09:48:22.466Z,11.41
2023-02-11T09:50:50.374Z,11.44
2023-02-11T09:53:20.827Z,11.47
2023-02-11T09:55:48.764Z,11.49
2023-02-11T09:58:21.080Z,11.54
2023-02-11T10:00:53.162Z,11.55
2023-02-11T10:03:38.377Z,11.56
2023-02-11T10:06:06.743Z,11.59
2023-02-11T10:08:42.301Z,11.62
2023-02-11T10:11:26.020Z,11.65
2023-02-11T10:14:00.808Z,11.67
2023-02-11T10:16:30.794Z,11.70
2023-02-11T10:18:59.944Z,11.74
2023-02-11T10:21:29.923Z,11.76
2023-02-11T10:24:01.130Z,11.79
2023-02-11T10:26:31.262Z,11.81
2023-02-11T10:29:01.252Z,11.82
2023-02-11T10:31:34.491Z,11.86
2023-02-11T10:34:04.755Z,11.89
2023-02-11T10:36:34.356Z,11.89
2023-02-11T10:39:03.318Z,11.91
2023-02-11T10:41:33.376Z,11.94
2023-02-11T10:44:01.119Z,11.94
2023-02-11T10:46:31.685Z,11.97
2023-02-11T10:48:58.787Z,12.00
2023-02-11T10:51:27.670Z,12.03
2023-02-11T10:53:57.800Z,12.06
2023-02-11T10:56:27.823Z,12.09
2023-02-11T10:58:57.906Z,12.11
2023-02-11T11:01:37.684Z,12.10
2023-02-11T11:04:04.988Z,12.13
2023-02-11T11:06:33.281Z,12.17
2023-02-11T11:09:01.258Z,12.20
2023-02-11T11:11:28.335Z,12.21
2023-02-11T11:13:56.720Z,12.24
2023-02-11T11:16:26.834Z,12.28
2023-02-11T11:19:13.996Z,12.31
2023-02-11T11:21:43.419Z,12.34
2023-02-11T11:24:13.457Z,12.38
2023-02-11T11:26:42.059Z,12.40
2023-02-11T11:29:12.494Z,12.42
2023-02-11T11:31:43.062Z,12.46
2023-02-11T11:34:13.222Z,12.51
2023-02-11T11:36:40.708Z,12.54
2023-02-11T11:39:11.034Z,12.56
2023-02-11T11:41:49.294Z,12.57
2023-02-11T11:44:16.749Z,12.59
2023-02-11T11:46:45.361Z,12.59
2023-02-11T11:49:13.806Z,12.61
2023-02-11T11:51:42.746Z,12.62
2023-02-11T11:54:13.223Z,12.62
2023-02-11T11:56:46.339Z,12.64
2023-02-11T11:59:16.732Z,12.70
2023-02-11T12:01:47.109Z,12.74
2023-02-11T12:04:14.673Z,12.77
2023-02-11T12:06:51.333Z,12.76
2023-02-11T12:09:21.382Z,12.81
2023-02-11T12:11:49.234Z,12.82
2023-02-11T12:14:19.229Z,12.87
2023-02-11T12:16:47.135Z,12.88
2023-02-11T12:19:17.525Z,12.89
2023-02-11T12:21:45.897Z,12.89
2023-02-11T12:24:17.436Z,12.92
2023-02-11T12:26:47.527Z,12.92
2023-02-11T12:29:21.010Z,12.95
2023-02-11T12:31:51.141Z,12.96
2023-02-11T12:34:19.444Z,12.97
2023-02-11T12:36:54.629Z,12.96
2023-02-11T12:39:22.015Z,12.95
2023-02-11T12:41:53.528Z,12.95
2023-02-11T12:44:23.633Z,12.94
2023-02-11T12:46:54.161Z,12.97
2023-02-11T12:49:21.939Z,12.97
2023-02-11T12:51:56.172Z,12.95
2023-02-11T12:54:26.234Z,12.95
2023-02-11T12:56:56.286Z,12.96
2023-02-11T12:59:26.514Z,12.96
2023-02-11T13:01:54.450Z,12.97
2023-02-11T13:04:26.240Z,12.94
2023-02-11T13:06:58.308Z,12.92
2023-02-11T13:09:26.978Z,12.91
2023-02-11T13:11:57.060Z,12.89
2023-02-11T13:14:28.952Z,12.88
2023-02-11T13:16:58.481Z,12.88
2023-02-11T13:19:28.836Z,12.85
2023-02-11T13:21:59.220Z,12.83
2023-02-11T13:24:26.665Z,12.83
2023-02-11T13:26:57.857Z,12.81
2023-02-11T13:29:28.127Z,12.81
2023-02-11T13:31:56.682Z,12.82
2023-02-11T13:34:26.970Z,12.82
2023-02-11T13:36:55.469Z,12.80
2023-02-11T13:39:22.966Z,12.78
2023-02-11T13:41:52.754Z,12.78
2023-02-11T13:44:22.815Z,12.76
2023-02-11T13:46:50.350Z,12.75
2023-02-11T13:49:20.724Z,12.74
2023-02-11T13:51:48.383Z,12.74
2023-02-11T13:54:18.669Z,12.74
2023-02-11T13:56:46.833Z,12.72
2023-02-11T13:59:16.913Z,12.69
2023-02-11T14:02:08.137Z,12.68
2023-02-11T14:04:38.223Z,12.69
2023-02-11T14:07:11.479Z,12.71
2023-02-11T14:09:39.896Z,12.69
2023-02-11T14:12:10.377Z,12.68
2023-02-11T14:14:57.239Z,12.65
2023-02-11T14:17:28.049Z,12.65
2023-02-11T14:19:55.336Z,12.65
2023-02-11T14:22:24.441Z,12.66
2023-02-11T14:24:51.937Z,12.66
2023-02-11T14:27:22.129Z,12.65
2023-02-11T14:29:58.000Z,12.65
2023-02-11T14:32:28.268Z,12.63
2023-02-11T14:34:58.621Z,12.62
2023-02-11T14:37:27.479Z,12.59
2023-02-11T14:39:57.475Z,12.58
2023-02-11T14:42:27.411Z,12.55
2023-02-11T14:44:56.835Z,12.53
2023-02-11T14:47:27.477Z,12.51
2023-02-11T14:49:54.706Z,12.51
2023-02-11T14:52:24.937Z,12.49
2023-02-11T14:54:52.916Z,12.49
2023-02-11T14:57:21.088Z,12.50
2023-02-11T14:59:51.602Z,12.51
2023-02-11T15:02:21.890Z,12.52
2023-02-11T15:04:49.061Z,12.51
2023-02-11T15:07:16.116Z,12.52
2023-02-11T15:09:46.241Z,12.53
2023-02-11T15:12:18.343Z,12.51
2023-02-11T15:14:48.401Z,12.48
2023-02-11T15:17:17.803Z,12.47
2023-02-11T15:19:48.514Z,12.46
2023-02-11T15:22:19.155Z,12.43
2023-02-11T15:24:47.148Z,12.42
2023-02-11T15:27:16.483Z,12.39
2023-02-11T15:29:45.076Z,12.37
2023-02-11T15:32:12.444Z,12.38
2023-02-11T15:34:39.880Z,12.37
2023-02-11T15:37:07.158Z,12.36
2023-02-11T15:39:35.630Z,12.36
2023-02-11T15:42:05.749Z,12.37
2023-02-11T15:44:33.409Z,12.36
2023-02-11T15:47:01.212Z,12.36
2023-02-11T15:49:28.421Z,12.35
2023-02-11T15:51:57.764Z,12.34
2023-02-11T15:54:27.198Z,12.32
2023-02-11T15:56:56.106Z,12.32
2023-02-11T15:59:28.173Z,12.33
2023-02-11T16:01:56.058Z,12.33
2023-02-11T16:04:24.986Z,12.33
2023-02-11T16:06:52.630Z,12.32
2023-02-11T16:09:20.050Z,12.31
2023-02-11T16:11:48.597Z,12.30
2023-02-11T16:14:18.672Z,12.26
2023-02-11T16:16:50.355Z,12.24
2023-02-11T16:19:19.776Z,12.23
2023-02-11T16:21:47.080Z,12.20
2023-02-11T16:24:19.334Z,12.18
2023-02-11T16:26:48.338Z,12.16
2023-02-11T16:29:15.804Z,12.15
2023-02-11T16:31:44.804Z,12.14
2023-02-11T16:34:13.642Z,12.12
2023-02-11T16:36:40.654Z,12.10
2023-02-11T16:39:07.686Z,12.09
2023-02-11T16:41:34.650Z,12.05
2023-02-11T16:44:02.097Z,12.05
2023-02-11T16:46:29.133Z,12.05
2023-02-11T16:48:56.763Z,12.05
2023-02-11T16:51:23.648Z,12.08
2023-02-11T16:53:50.650Z,12.09
2023-02-11T16:56:18.693Z,12.09
2023-02-11T16:58:46.111Z,12.08
2023-02-11T17:01:14.205Z,12.05
2023-02-11T17:03:41.692Z,12.03
2023-02-11T17:06:09.920Z,11.99
2023-02-11T17:08:37.001Z,11.99
2023-02-11T17:11:03.965Z,12.00
2023-02-11T17:13:31.031Z,11.98
2023-02-11T17:15:58.042Z,11.99
2023-02-11T17:18:25.181Z,12.02
2023-02-11T17:20:52.060Z,12.02
2023-02-11T17:23:19.044Z,12.02
2023-02-11T17:25:46.153Z,12.03
2023-02-11T17:28:13.285Z,12.05
2023-02-11T17:30:41.890Z,12.10
2023-02-11T17:33:08.970Z,12.09
2023-02-11T17:35:39.151Z,12.06
2023-02-11T17:38:06.684Z,12.08
2023-02-11T17:40:33.619Z,12.04
2023-02-11T17:43:00.603Z,12.03
2023-02-11T17:45:27.611Z,12.02
2023-02-11T17:47:54.667Z,12.03
2023-02-11T17:50:23.813Z,12.06
2023-02-11T17:52:51.108Z,12.06
2023-02-11T17:55:18.022Z,12.04
2023-02-11T17:57:45.107Z,12.04
2023-02-11T18:00:12.688Z,12.05
2023-02-11T18:02:39.616Z,12.05
2023-02-11T18:05:06.763Z,12.04
2023-02-11T18:07:33.811Z,12.03
2023-02-11T18:10:00.711Z,12.04
2023-02-11T18:12:27.894Z,12.06
2023-02-11T18:14:57.544Z,12.06
2023-02-11T18:17:25.091Z,12.05
2023-02-11T18:19:55.224Z,12.04
2023-02-11T18:22:22.169Z,12.04
2023-02-11T18:24:52.357Z,12.04
2023-02-11T18:27:19.307Z,12.04
2023-02-11T18:29:46.381Z,12.03
2023-02-11T18:32:13.818Z,12.04
2023-02-11T18:34:41.629Z,12.05
2023-02-11T18:37:08.647Z,12.06
2023-02-11T18:39:36.392Z,12.06
2023-02-11T18:42:03.475Z,12.04
2023-02-11T18:44:30.469Z,12.07
2023-02-11T18:46:57.529Z,12.09
2023-02-11T18:49:24.599Z,12.07
2023-02-11T18:51:51.546Z,12.06
2023-02-11T18:54:18.516Z,12.03
2023-02-11T18:56:45.523Z,12.05
2023-02-11T18:59:13.042Z,12.03
2023-02-11T19:01:43.502Z,12.04
2023-02-11T19:04:10.543Z,12.06
2023-02-11T19:06:38.071Z,12.05
2023-02-11T19:09:08.127Z,12.05
2023-02-11T19:11:38.364Z,12.03
2023-02-11T19:14:10.409Z,12.04
2023-02-11T19:16:39.185Z,12.01
2023-02-11T19:19:06.344Z,11.99
2023-02-11T19:21:33.822Z,11.98
2023-02-11T19:24:01.148Z,11.98
2023-02-11T19:26:28.644Z,11.96
2023-02-11T19:28:55.873Z,11.95
2023-02-11T19:31:22.847Z,11.94
2023-02-11T19:33:49.990Z,11.91
2023-02-11T19:36:17.597Z,11.92
2023-02-11T19:38:45.239Z,11.92
2023-02-11T19:41:12.568Z,11.90
2023-02-11T19:43:40.948Z,11.90
2023-02-11T19:46:08.830Z,11.91
2023-02-11T19:48:35.972Z,11.92
2023-02-11T19:51:06.003Z,11.93
2023-02-11T19:53:33.107Z,11.95
2023-02-11T19:56:01.492Z,11.96
2023-02-11T19:58:28.542Z,11.93
2023-02-11T20:00:55.453Z,11.93
2023-02-11T20:03:22.349Z,11.93
2023-02-11T20:05:49.704Z,11.94
2023-02-11T20:08:17.302Z,11.95
2023-02-11T20:10:44.351Z,11.92
2023-02-11T20:13:11.559Z,11.91
2023-02-11T20:15:38.770Z,11.92
2023-02-11T20:18:05.801Z,11.91
2023-02-11T20:20:32.761Z,11.89
2023-02-11T20:23:00.009Z,11.87
2023-02-11T20:25:27.026Z,11.87
2023-02-11T20:27:54.114Z,11.89
2023-02-11T20:30:21.992Z,11.89
2023-02-11T20:32:48.989Z,11.88
2023-02-11T20:35:16.062Z,11.83
2023-02-11T20:37:44.266Z,11.83
2023-02-11T20:40:11.595Z,11.85
2023-02-11T20:42:38.604Z,11.85
2023-02-11T20:45:05.703Z,11.88
2023-02-11T20:47:32.874Z,11.88
2023-02-11T20:49:59.796Z,11.88
2023-02-11T20:52:26.912Z,11.87
2023-02-11T20:54:53.983Z,11.87
2023-02-11T20:57:20.989Z,11.87
2023-02-11T20:59:48.088Z,11.87
2023-02-11T21:02:15.714Z,11.87
2023-02-11T21:04:42.955Z,11.88
2023-02-11T21:07:10.016Z,11.87
2023-02-11T21:09:37.027Z,11.87
2023-02-11T21:12:04.235Z,11.87
2023-02-11T21:14:31.564Z,11.85
2023-02-11T21:16:58.825Z,11.85
2023-02-11T21:19:25.757Z,11.85
2023-02-11T21:21:52.818Z,11.89
2023-02-11T21:24:19.778Z,11.91
2023-02-11T21:26:46.842Z,11.91
2023-02-11T21:29:13.798Z,11.92
2023-02-11T21:31:40.953Z,11.91
2023-02-11T21:34:08.900Z,11.92
2023-02-11T21:36:36.233Z,11.94
2023-02-11T21:39:04.280Z,11.94
2023-02-11T21:41:31.388Z,11.93
2023-02-11T21:43:58.341Z,11.93
2023-02-11T21:46:25.498Z,11.93
2023-02-11T21:48:52.845Z,11.91
2023-02-11T21:51:21.193Z,11.89
2023-02-11T21:53:48.369Z,11.89
2023-02-11T21:56:16.640Z,11.88
2023-02-11T21:58:44.322Z,11.85
2023-02-11T22:01:14.187Z,11.84
2023-02-11T22:03:41.475Z,11.82
2023-02-11T22:06:11.248Z,11.81
2023-02-11T22:08:38.673Z,11.81
2023-02-11T22:11:06.759Z,11.83
2023-02-11T22:13:34.549Z,11.82
2023-02-11T22:16:02.939Z,11.82
2023-02-11T22:18:31.276Z,11.83
2023-02-11T22:21:00.812Z,11.83
2023-02-11T22:23:27.988Z,11.81
2023-02-11T22:25:55.246Z,11.82
2023-02-11T22:28:22.363Z,11.84
2023-02-11T22:30:52.385Z,11.85
2023-02-11T22:33:19.281Z,11.85
2023-02-11T22:35:46.215Z,11.85
2023-02-11T22:38:13.024Z,11.85
2023-02-11T22:40:41.797Z,11.85
2023-02-11T22:43:09.315Z,11.84
2023-02-11T22:45:37.004Z,11.83
2023-02-11T22:48:04.861Z,11.83
2023-02-11T22:50:32.576Z,11.83
2023-02-11T22:52:59.824Z,11.83
2023-02-11T22:55:27.126Z,11.82
2023-02-11T22:57:54.471Z,11.82
2023-02-11T23:00:21.716Z,11.81
2023-02-11T23:02:49.223Z,11.82
2023-02-11T23:05:16.354Z,11.82
2023-02-11T23:07:43.246Z,11.81
2023-02-11T23:10:10.706Z,11.80
2023-02-11T23:12:37.603Z,11.80
2023-02-11T23:15:05.234Z,11.80
2023-02-11T23:17:32.169Z,11.80
2023-02-11T23:19:59.061Z,11.79
2023-02-11T23:22:26.043Z,11.77
2023-02-11T23:24:52.971Z,11.78
2023-02-11T23:27:19.852Z,11.77
2023-02-11T23:29:46.813Z,11.76
2023-02-11T23:32:13.789Z,11.73
2023-02-11T23:34:40.810Z,11.72
2023-02-11T23:37:07.658Z,11.72
2023-02-11T23:39:34.748Z,11.74
2023-02-11T23:42:01.588Z,11.74
2023-02-11T23:44:28.543Z,11.74
2023-02-11T23:46:55.433Z,11.77
2023-02-11T23:49:22.354Z,11.76
2023-02-11T23:51:49.220Z,11.79
2023-02-11T23:54:16.089Z,11.77
2023-02-11T23:56:43.394Z,11.76
2023-02-11T23:59:10.299Z,11.75
